sensor_id;sensor_type;location;lat;lon;timestamp;P1;durP1;ratioP1;P2;durP2;ratioP2
63444;SDS011;49573;47.682;9.170;2022-12-29T00:00:04;4.05;;;2.80;;
63444;SDS011;49573;47.682;9.170;2022-12-29T00:02:51;4.78;;;2.88;;
63444;SDS011;49573;47.682;9.170;2022-12-29T00:05:37;4.50;;;2.70;;
63444;SDS011;49573;47.682;9.170;2022-12-29T00:08:23;4.13;;;2.83;;
63444;SDS011;49573;47.682;9.170;2022-12-29T00:11:25;4.97;;;2.90;;
63444;SDS011;49573;47.682;9.170;2022-12-29T00:14:12;5.82;;;3.00;;
63444;SDS011;49573;47.682;9.170;2022-12-29T00:17:18;10.77;;;4.18;;
63444;SDS011;49573;47.682;9.170;2022-12-29T00:20:05;6.47;;;3.60;;
63444;SDS011;49573;47.682;9.170;2022-12-29T00:23:10;7.60;;;4.45;;
63444;SDS011;49573;47.682;9.170;2022-12-29T00:26:15;6.72;;;4.18;;
63444;SDS011;49573;47.682;9.170;2022-12-29T00:29:21;6.90;;;3.92;;
63444;SDS011;49573;47.682;9.170;2022-12-29T00:32:27;5.80;;;3.65;;
63444;SDS011;49573;47.682;9.170;2022-12-29T00:35:32;6.75;;;3.75;;
63444;SDS011;49573;47.682;9.170;2022-12-29T00:38:25;6.32;;;4.10;;
63444;SDS011;49573;47.682;9.170;2022-12-29T00:41:30;6.20;;;3.75;;
63444;SDS011;49573;47.682;9.170;2022-12-29T00:44:34;6.50;;;3.50;;
63444;SDS011;49573;47.682;9.170;2022-12-29T00:47:20;6.57;;;3.63;;
63444;SDS011;49573;47.682;9.170;2022-12-29T00:50:08;7.82;;;3.50;;
63444;SDS011;49573;47.682;9.170;2022-12-29T00:52:54;5.35;;;3.08;;
63444;SDS011;49573;47.682;9.170;2022-12-29T00:55:40;3.90;;;2.40;;
63444;SDS011;49573;47.682;9.170;2022-12-29T00:58:26;4.30;;;2.50;;
63444;SDS011;49573;47.682;9.170;2022-12-29T01:01:13;3.92;;;2.22;;
63444;SDS011;49573;47.682;9.170;2022-12-29T01:03:59;3.27;;;2.30;;
63444;SDS011;49573;47.682;9.170;2022-12-29T01:06:47;4.10;;;2.58;;
63444;SDS011;49573;47.682;9.170;2022-12-29T01:09:33;6.50;;;2.30;;
63444;SDS011;49573;47.682;9.170;2022-12-29T01:12:37;3.88;;;2.20;;
63444;SDS011;49573;47.682;9.170;2022-12-29T01:15:26;3.60;;;2.13;;
63444;SDS011;49573;47.682;9.170;2022-12-29T01:18:12;4.03;;;2.30;;
63444;SDS011;49573;47.682;9.170;2022-12-29T01:20:59;4.07;;;2.40;;
63444;SDS011;49573;47.682;9.170;2022-12-29T01:23:47;3.78;;;2.25;;
63444;SDS011;49573;47.682;9.170;2022-12-29T01:26:33;3.97;;;2.38;;
63444;SDS011;49573;47.682;9.170;2022-12-29T01:29:19;3.75;;;2.13;;
63444;SDS011;49573;47.682;9.170;2022-12-29T01:32:05;3.30;;;2.10;;
63444;SDS011;49573;47.682;9.170;2022-12-29T01:34:51;3.47;;;2.55;;
63444;SDS011;49573;47.682;9.170;2022-12-29T01:37:37;3.42;;;2.20;;
63444;SDS011;49573;47.682;9.170;2022-12-29T01:40:25;3.15;;;1.90;;
63444;SDS011;49573;47.682;9.170;2022-12-29T01:43:11;3.90;;;2.20;;
63444;SDS011;49573;47.682;9.170;2022-12-29T01:45:59;3.45;;;1.92;;
63444;SDS011;49573;47.682;9.170;2022-12-29T01:48:46;2.88;;;2.00;;
63444;SDS011;49573;47.682;9.170;2022-12-29T01:51:35;4.47;;;2.00;;
63444;SDS011;49573;47.682;9.170;2022-12-29T01:54:24;3.58;;;2.08;;
63444;SDS011;49573;47.682;9.170;2022-12-29T01:57:15;3.10;;;1.90;;
63444;SDS011;49573;47.682;9.170;2022-12-29T02:00:06;6.43;;;2.00;;
63444;SDS011;49573;47.682;9.170;2022-12-29T02:02:54;3.60;;;1.48;;
63444;SDS011;49573;47.682;9.170;2022-12-29T02:05:42;3.40;;;1.90;;
63444;SDS011;49573;47.682;9.170;2022-12-29T02:08:31;4.63;;;1.60;;
63444;SDS011;49573;47.682;9.170;2022-12-29T02:11:18;3.35;;;1.60;;
63444;SDS011;49573;47.682;9.170;2022-12-29T02:14:09;3.38;;;1.73;;
63444;SDS011;49573;47.682;9.170;2022-12-29T02:16:59;2.67;;;1.38;;
63444;SDS011;49573;47.682;9.170;2022-12-29T02:20:03;3.00;;;1.85;;
63444;SDS011;49573;47.682;9.170;2022-12-29T02:23:28;2.80;;;1.50;;
63444;SDS011;49573;47.682;9.170;2022-12-29T02:32:52;2.90;;;1.70;;
63444;SDS011;49573;47.682;9.170;2022-12-29T02:35:43;2.95;;;1.63;;
63444;SDS011;49573;47.682;9.170;2022-12-29T02:38:43;2.20;;;1.60;;
63444;SDS011;49573;47.682;9.170;2022-12-29T02:41:38;2.97;;;1.42;;
63444;SDS011;49573;47.682;9.170;2022-12-29T02:44:34;3.63;;;1.92;;
63444;SDS011;49573;47.682;9.170;2022-12-29T02:47:00;2.17;;;1.42;;
63444;SDS011;49573;47.682;9.170;2022-12-29T02:49:57;2.38;;;1.67;;
63444;SDS011;49573;47.682;9.170;2022-12-29T02:52:48;4.43;;;1.95;;
63444;SDS011;49573;47.682;9.170;2022-12-29T02:55:37;3.92;;;1.58;;
63444;SDS011;49573;47.682;9.170;2022-12-29T02:58:24;3.72;;;1.83;;
63444;SDS011;49573;47.682;9.170;2022-12-29T03:01:15;2.97;;;1.70;;
63444;SDS011;49573;47.682;9.170;2022-12-29T03:04:16;3.40;;;1.77;;
63444;SDS011;49573;47.682;9.170;2022-12-29T03:07:16;3.55;;;1.85;;
63444;SDS011;49573;47.682;9.170;2022-12-29T03:10:11;3.42;;;1.85;;
63444;SDS011;49573;47.682;9.170;2022-12-29T03:13:04;2.78;;;1.67;;
63444;SDS011;49573;47.682;9.170;2022-12-29T03:16:22;3.80;;;1.75;;
63444;SDS011;49573;47.682;9.170;2022-12-29T03:19:14;2.70;;;1.50;;
63444;SDS011;49573;47.682;9.170;2022-12-29T03:22:05;2.53;;;1.70;;
63444;SDS011;49573;47.682;9.170;2022-12-29T03:25:14;3.47;;;1.42;;
63444;SDS011;49573;47.682;9.170;2022-12-29T03:28:05;2.33;;;1.70;;
63444;SDS011;49573;47.682;9.170;2022-12-29T03:30:53;2.63;;;1.65;;
63444;SDS011;49573;47.682;9.170;2022-12-29T03:33:41;3.97;;;1.67;;
63444;SDS011;49573;47.682;9.170;2022-12-29T03:36:30;4.90;;;1.73;;
63444;SDS011;49573;47.682;9.170;2022-12-29T03:39:22;3.15;;;1.90;;
63444;SDS011;49573;47.682;9.170;2022-12-29T03:42:11;2.90;;;1.73;;
63444;SDS011;49573;47.682;9.170;2022-12-29T03:45:00;4.25;;;1.70;;
63444;SDS011;49573;47.682;9.170;2022-12-29T03:47:46;3.10;;;1.50;;
63444;SDS011;49573;47.682;9.170;2022-12-29T03:50:32;3.20;;;1.73;;
63444;SDS011;49573;47.682;9.170;2022-12-29T03:53:19;2.65;;;1.70;;
63444;SDS011;49573;47.682;9.170;2022-12-29T03:56:05;2.47;;;1.63;;
63444;SDS011;49573;47.682;9.170;2022-12-29T03:58:53;3.20;;;1.83;;
63444;SDS011;49573;47.682;9.170;2022-12-29T04:01:39;2.97;;;1.85;;
63444;SDS011;49573;47.682;9.170;2022-12-29T04:04:25;2.97;;;1.80;;
63444;SDS011;49573;47.682;9.170;2022-12-29T04:07:11;3.13;;;1.80;;
63444;SDS011;49573;47.682;9.170;2022-12-29T04:09:57;2.40;;;1.60;;
63444;SDS011;49573;47.682;9.170;2022-12-29T04:12:43;2.97;;;1.80;;
63444;SDS011;49573;47.682;9.170;2022-12-29T04:15:33;2.92;;;1.77;;
63444;SDS011;49573;47.682;9.170;2022-12-29T04:18:19;2.78;;;1.63;;
63444;SDS011;49573;47.682;9.170;2022-12-29T04:21:05;4.18;;;2.00;;
63444;SDS011;49573;47.682;9.170;2022-12-29T04:23:51;2.55;;;1.50;;
63444;SDS011;49573;47.682;9.170;2022-12-29T04:26:37;4.43;;;1.98;;
63444;SDS011;49573;47.682;9.170;2022-12-29T04:29:24;2.95;;;1.65;;
63444;SDS011;49573;47.682;9.170;2022-12-29T04:32:11;4.07;;;2.00;;
63444;SDS011;49573;47.682;9.170;2022-12-29T04:34:57;3.28;;;1.83;;
63444;SDS011;49573;47.682;9.170;2022-12-29T04:37:43;2.92;;;1.52;;
63444;SDS011;49573;47.682;9.170;2022-12-29T04:40:29;2.22;;;1.65;;
63444;SDS011;49573;47.682;9.170;2022-12-29T04:43:15;4.07;;;1.85;;
63444;SDS011;49573;47.682;9.170;2022-12-29T04:46:04;4.28;;;1.70;;
63444;SDS011;49573;47.682;9.170;2022-12-29T04:48:51;4.07;;;2.25;;
63444;SDS011;49573;47.682;9.170;2022-12-29T04:51:37;3.65;;;2.15;;
63444;SDS011;49573;47.682;9.170;2022-12-29T04:54:23;2.28;;;1.55;;
63444;SDS011;49573;47.682;9.170;2022-12-29T04:57:09;3.45;;;1.85;;
63444;SDS011;49573;47.682;9.170;2022-12-29T04:59:55;5.57;;;1.90;;
63444;SDS011;49573;47.682;9.170;2022-12-29T05:02:41;3.53;;;1.83;;
63444;SDS011;49573;47.682;9.170;2022-12-29T05:05:29;3.35;;;1.88;;
63444;SDS011;49573;47.682;9.170;2022-12-29T05:08:15;3.30;;;1.83;;
63444;SDS011;49573;47.682;9.170;2022-12-29T05:11:01;3.47;;;2.08;;
63444;SDS011;49573;47.682;9.170;2022-12-29T05:13:47;4.97;;;2.08;;
63444;SDS011;49573;47.682;9.170;2022-12-29T05:16:33;4.20;;;2.28;;
63444;SDS011;49573;47.682;9.170;2022-12-29T05:19:19;3.53;;;1.90;;
63444;SDS011;49573;47.682;9.170;2022-12-29T05:22:07;3.97;;;2.13;;
63444;SDS011;49573;47.682;9.170;2022-12-29T05:24:53;2.70;;;1.60;;
63444;SDS011;49573;47.682;9.170;2022-12-29T05:27:39;3.70;;;1.70;;
63444;SDS011;49573;47.682;9.170;2022-12-29T05:30:25;1.73;;;1.25;;
63444;SDS011;49573;47.682;9.170;2022-12-29T05:33:11;2.47;;;1.65;;
63444;SDS011;49573;47.682;9.170;2022-12-29T05:35:57;2.35;;;1.35;;
63444;SDS011;49573;47.682;9.170;2022-12-29T05:38:50;4.82;;;1.65;;
63444;SDS011;49573;47.682;9.170;2022-12-29T05:41:36;3.15;;;1.50;;
63444;SDS011;49573;47.682;9.170;2022-12-29T05:44:22;3.80;;;1.67;;
63444;SDS011;49573;47.682;9.170;2022-12-29T05:47:08;2.25;;;1.67;;
63444;SDS011;49573;47.682;9.170;2022-12-29T05:49:54;3.03;;;1.73;;
63444;SDS011;49573;47.682;9.170;2022-12-29T05:52:40;2.80;;;1.70;;
63444;SDS011;49573;47.682;9.170;2022-12-29T05:55:28;3.40;;;1.33;;
63444;SDS011;49573;47.682;9.170;2022-12-29T05:58:14;2.50;;;1.77;;
63444;SDS011;49573;47.682;9.170;2022-12-29T06:01:01;2.53;;;1.63;;
63444;SDS011;49573;47.682;9.170;2022-12-29T06:03:47;3.25;;;1.70;;
63444;SDS011;49573;47.682;9.170;2022-12-29T06:06:33;2.15;;;1.42;;
63444;SDS011;49573;47.682;9.170;2022-12-29T06:09:19;2.97;;;1.95;;
63444;SDS011;49573;47.682;9.170;2022-12-29T06:12:06;3.55;;;2.00;;
63444;SDS011;49573;47.682;9.170;2022-12-29T06:14:52;5.43;;;2.00;;
63444;SDS011;49573;47.682;9.170;2022-12-29T06:17:39;3.50;;;1.88;;
63444;SDS011;49573;47.682;9.170;2022-12-29T06:20:26;3.22;;;1.90;;
63444;SDS011;49573;47.682;9.170;2022-12-29T06:23:12;3.70;;;2.58;;
63444;SDS011;49573;47.682;9.170;2022-12-29T06:25:58;6.35;;;2.30;;
63444;SDS011;49573;47.682;9.170;2022-12-29T06:28:46;3.50;;;1.95;;
63444;SDS011;49573;47.682;9.170;2022-12-29T06:31:32;3.50;;;2.08;;
63444;SDS011;49573;47.682;9.170;2022-12-29T06:34:18;3.60;;;2.10;;
63444;SDS011;49573;47.682;9.170;2022-12-29T06:37:05;2.88;;;2.03;;
63444;SDS011;49573;47.682;9.170;2022-12-29T06:39:51;3.10;;;2.13;;
63444;SDS011;49573;47.682;9.170;2022-12-29T06:42:37;2.95;;;1.83;;
63444;SDS011;49573;47.682;9.170;2022-12-29T06:45:24;5.32;;;2.80;;
63444;SDS011;49573;47.682;9.170;2022-12-29T06:48:10;5.63;;;3.15;;
63444;SDS011;49573;47.682;9.170;2022-12-29T06:50:57;5.07;;;2.17;;
63444;SDS011;49573;47.682;9.170;2022-12-29T06:53:43;4.05;;;1.95;;
63444;SDS011;49573;47.682;9.170;2022-12-29T06:56:29;2.95;;;1.88;;
63444;SDS011;49573;47.682;9.170;2022-12-29T06:59:15;2.45;;;1.70;;
63444;SDS011;49573;47.682;9.170;2022-12-29T07:02:02;5.95;;;3.45;;
63444;SDS011;49573;47.682;9.170;2022-12-29T07:04:48;3.65;;;2.35;;
63444;SDS011;49573;47.682;9.170;2022-12-29T07:07:34;6.03;;;3.38;;
63444;SDS011;49573;47.682;9.170;2022-12-29T07:10:20;7.38;;;3.47;;
63444;SDS011;49573;47.682;9.170;2022-12-29T07:13:07;4.57;;;2.30;;
63444;SDS011;49573;47.682;9.170;2022-12-29T07:15:53;3.95;;;1.92;;
63444;SDS011;49573;47.682;9.170;2022-12-29T07:18:40;4.30;;;1.80;;
63444;SDS011;49573;47.682;9.170;2022-12-29T07:21:27;5.15;;;2.28;;
63444;SDS011;49573;47.682;9.170;2022-12-29T07:24:13;4.68;;;2.40;;
63444;SDS011;49573;47.682;9.170;2022-12-29T07:26:59;5.63;;;2.35;;
63444;SDS011;49573;47.682;9.170;2022-12-29T07:29:45;3.70;;;2.22;;
63444;SDS011;49573;47.682;9.170;2022-12-29T07:32:32;5.05;;;2.33;;
63444;SDS011;49573;47.682;9.170;2022-12-29T07:35:19;4.22;;;2.40;;
63444;SDS011;49573;47.682;9.170;2022-12-29T07:38:05;4.32;;;2.53;;
63444;SDS011;49573;47.682;9.170;2022-12-29T07:40:55;6.45;;;3.60;;
63444;SDS011;49573;47.682;9.170;2022-12-29T07:43:42;3.70;;;2.28;;
63444;SDS011;49573;47.682;9.170;2022-12-29T07:46:28;6.45;;;2.65;;
63444;SDS011;49573;47.682;9.170;2022-12-29T07:49:14;6.40;;;3.25;;
63444;SDS011;49573;47.682;9.170;2022-12-29T07:52:01;4.72;;;2.50;;
63444;SDS011;49573;47.682;9.170;2022-12-29T07:54:47;5.93;;;2.50;;
63444;SDS011;49573;47.682;9.170;2022-12-29T07:57:33;3.97;;;2.10;;
63444;SDS011;49573;47.682;9.170;2022-12-29T08:00:20;5.15;;;2.50;;
63444;SDS011;49573;47.682;9.170;2022-12-29T08:03:06;5.40;;;2.40;;
63444;SDS011;49573;47.682;9.170;2022-12-29T08:05:52;5.55;;;2.65;;
63444;SDS011;49573;47.682;9.170;2022-12-29T08:08:40;5.80;;;3.03;;
63444;SDS011;49573;47.682;9.170;2022-12-29T08:11:26;4.85;;;2.60;;
63444;SDS011;49573;47.682;9.170;2022-12-29T08:14:12;4.65;;;2.08;;
63444;SDS011;49573;47.682;9.170;2022-12-29T08:16:58;7.00;;;2.73;;
63444;SDS011;49573;47.682;9.170;2022-12-29T08:19:44;4.00;;;2.10;;
63444;SDS011;49573;47.682;9.170;2022-12-29T08:22:30;7.90;;;2.60;;
63444;SDS011;49573;47.682;9.170;2022-12-29T08:25:18;11.23;;;4.22;;
63444;SDS011;49573;47.682;9.170;2022-12-29T08:28:04;4.75;;;2.83;;
63444;SDS011;49573;47.682;9.170;2022-12-29T08:30:51;4.25;;;2.50;;
63444;SDS011;49573;47.682;9.170;2022-12-29T08:33:37;5.13;;;2.53;;
63444;SDS011;49573;47.682;9.170;2022-12-29T08:36:23;3.53;;;2.30;;
63444;SDS011;49573;47.682;9.170;2022-12-29T08:39:09;4.05;;;2.60;;
63444;SDS011;49573;47.682;9.170;2022-12-29T08:41:56;4.72;;;2.67;;
63444;SDS011;49573;47.682;9.170;2022-12-29T08:44:42;5.32;;;2.80;;
63444;SDS011;49573;47.682;9.170;2022-12-29T08:47:28;5.03;;;2.50;;
63444;SDS011;49573;47.682;9.170;2022-12-29T08:50:15;4.40;;;2.97;;
63444;SDS011;49573;47.682;9.170;2022-12-29T08:53:01;3.65;;;2.28;;
63444;SDS011;49573;47.682;9.170;2022-12-29T08:55:47;3.63;;;2.33;;
63444;SDS011;49573;47.682;9.170;2022-12-29T08:58:41;6.68;;;3.80;;
63444;SDS011;49573;47.682;9.170;2022-12-29T09:01:27;7.13;;;3.17;;
63444;SDS011;49573;47.682;9.170;2022-12-29T09:04:13;5.05;;;3.22;;
63444;SDS011;49573;47.682;9.170;2022-12-29T09:06:59;4.50;;;2.70;;
63444;SDS011;49573;47.682;9.170;2022-12-29T09:09:45;5.78;;;2.47;;
63444;SDS011;49573;47.682;9.170;2022-12-29T09:12:31;6.20;;;2.97;;
63444;SDS011;49573;47.682;9.170;2022-12-29T09:15:18;6.13;;;2.83;;
63444;SDS011;49573;47.682;9.170;2022-12-29T09:18:05;5.82;;;2.40;;
63444;SDS011;49573;47.682;9.170;2022-12-29T09:20:55;5.00;;;2.45;;
63444;SDS011;49573;47.682;9.170;2022-12-29T09:23:41;5.93;;;2.83;;
63444;SDS011;49573;47.682;9.170;2022-12-29T09:26:28;7.32;;;2.70;;
63444;SDS011;49573;47.682;9.170;2022-12-29T09:29:14;3.70;;;2.60;;
63444;SDS011;49573;47.682;9.170;2022-12-29T09:32:02;8.80;;;2.80;;
63444;SDS011;49573;47.682;9.170;2022-12-29T09:34:49;4.80;;;2.70;;
63444;SDS011;49573;47.682;9.170;2022-12-29T09:37:35;5.95;;;2.72;;
63444;SDS011;49573;47.682;9.170;2022-12-29T09:40:26;4.13;;;2.20;;
63444;SDS011;49573;47.682;9.170;2022-12-29T09:43:30;5.05;;;2.60;;
63444;SDS011;49573;47.682;9.170;2022-12-29T09:46:29;4.10;;;2.00;;
63444;SDS011;49573;47.682;9.170;2022-12-29T09:49:22;3.78;;;2.45;;
63444;SDS011;49573;47.682;9.170;2022-12-29T09:52:13;3.20;;;2.00;;
63444;SDS011;49573;47.682;9.170;2022-12-29T09:55:04;2.67;;;1.70;;
63444;SDS011;49573;47.682;9.170;2022-12-29T09:57:56;3.25;;;1.90;;
63444;SDS011;49573;47.682;9.170;2022-12-29T10:00:47;4.47;;;2.17;;
63444;SDS011;49573;47.682;9.170;2022-12-29T10:03:41;2.60;;;1.52;;
63444;SDS011;49573;47.682;9.170;2022-12-29T10:06:35;5.28;;;2.40;;
63444;SDS011;49573;47.682;9.170;2022-12-29T10:09:25;3.20;;;1.70;;
63444;SDS011;49573;47.682;9.170;2022-12-29T10:12:21;4.10;;;1.88;;
63444;SDS011;49573;47.682;9.170;2022-12-29T10:15:18;2.85;;;1.65;;
63444;SDS011;49573;47.682;9.170;2022-12-29T10:18:19;4.15;;;1.70;;
63444;SDS011;49573;47.682;9.170;2022-12-29T10:21:20;3.35;;;1.50;;
63444;SDS011;49573;47.682;9.170;2022-12-29T10:24:19;2.78;;;1.50;;
63444;SDS011;49573;47.682;9.170;2022-12-29T10:27:09;4.72;;;1.83;;
63444;SDS011;49573;47.682;9.170;2022-12-29T10:29:57;3.33;;;1.52;;
63444;SDS011;49573;47.682;9.170;2022-12-29T10:32:47;5.40;;;1.98;;
63444;SDS011;49573;47.682;9.170;2022-12-29T10:35:36;2.88;;;1.63;;
63444;SDS011;49573;47.682;9.170;2022-12-29T10:38:26;5.15;;;1.70;;
63444;SDS011;49573;47.682;9.170;2022-12-29T10:41:23;3.45;;;2.00;;
63444;SDS011;49573;47.682;9.170;2022-12-29T10:44:15;4.10;;;1.90;;
63444;SDS011;49573;47.682;9.170;2022-12-29T10:47:04;3.42;;;1.52;;
63444;SDS011;49573;47.682;9.170;2022-12-29T10:49:53;3.83;;;1.80;;
63444;SDS011;49573;47.682;9.170;2022-12-29T10:52:39;3.45;;;1.88;;
63444;SDS011;49573;47.682;9.170;2022-12-29T10:55:27;2.65;;;1.50;;
63444;SDS011;49573;47.682;9.170;2022-12-29T10:58:18;6.30;;;1.90;;
63444;SDS011;49573;47.682;9.170;2022-12-29T11:01:07;4.40;;;1.90;;
63444;SDS011;49573;47.682;9.170;2022-12-29T11:03:56;2.35;;;1.60;;
63444;SDS011;49573;47.682;9.170;2022-12-29T11:06:48;3.00;;;1.83;;
63444;SDS011;49573;47.682;9.170;2022-12-29T11:09:35;5.97;;;1.80;;
63444;SDS011;49573;47.682;9.170;2022-12-29T11:12:24;3.30;;;2.20;;
63444;SDS011;49573;47.682;9.170;2022-12-29T11:15:14;4.05;;;1.67;;
63444;SDS011;49573;47.682;9.170;2022-12-29T11:18:01;2.45;;;1.73;;
63444;SDS011;49573;47.682;9.170;2022-12-29T11:20:47;4.50;;;1.67;;
63444;SDS011;49573;47.682;9.170;2022-12-29T11:23:35;3.45;;;1.90;;
63444;SDS011;49573;47.682;9.170;2022-12-29T11:26:23;2.88;;;1.50;;
63444;SDS011;49573;47.682;9.170;2022-12-29T11:29:17;3.95;;;2.03;;
63444;SDS011;49573;47.682;9.170;2022-12-29T11:32:12;4.55;;;1.80;;
63444;SDS011;49573;47.682;9.170;2022-12-29T11:35:02;3.47;;;1.70;;
63444;SDS011;49573;47.682;9.170;2022-12-29T11:37:53;5.95;;;2.10;;
63444;SDS011;49573;47.682;9.170;2022-12-29T11:40:42;2.70;;;1.67;;
63444;SDS011;49573;47.682;9.170;2022-12-29T11:43:29;5.38;;;2.10;;
63444;SDS011;49573;47.682;9.170;2022-12-29T11:46:19;3.20;;;1.63;;
63444;SDS011;49573;47.682;9.170;2022-12-29T11:49:10;2.47;;;1.70;;
63444;SDS011;49573;47.682;9.170;2022-12-29T11:52:04;6.07;;;2.63;;
63444;SDS011;49573;47.682;9.170;2022-12-29T11:54:52;5.07;;;2.70;;
63444;SDS011;49573;47.682;9.170;2022-12-29T11:57:39;5.38;;;2.20;;
63444;SDS011;49573;47.682;9.170;2022-12-29T12:00:29;3.88;;;1.88;;
63444;SDS011;49573;47.682;9.170;2022-12-29T12:03:18;3.20;;;1.80;;
63444;SDS011;49573;47.682;9.170;2022-12-29T12:06:10;4.65;;;2.10;;
63444;SDS011;49573;47.682;9.170;2022-12-29T12:09:02;3.08;;;1.83;;
63444;SDS011;49573;47.682;9.170;2022-12-29T12:11:51;3.83;;;2.08;;
63444;SDS011;49573;47.682;9.170;2022-12-29T12:14:41;4.47;;;1.90;;
63444;SDS011;49573;47.682;9.170;2022-12-29T12:17:33;3.47;;;2.20;;
63444;SDS011;49573;47.682;9.170;2022-12-29T12:20:34;3.10;;;1.73;;
63444;SDS011;49573;47.682;9.170;2022-12-29T12:23:35;4.70;;;2.10;;
63444;SDS011;49573;47.682;9.170;2022-12-29T12:26:28;3.00;;;1.98;;
63444;SDS011;49573;47.682;9.170;2022-12-29T12:29:20;3.40;;;1.83;;
63444;SDS011;49573;47.682;9.170;2022-12-29T12:32:12;4.10;;;1.88;;
63444;SDS011;49573;47.682;9.170;2022-12-29T12:35:02;3.75;;;1.95;;
63444;SDS011;49573;47.682;9.170;2022-12-29T12:37:53;2.92;;;1.88;;
63444;SDS011;49573;47.682;9.170;2022-12-29T12:41:03;4.10;;;2.15;;
63444;SDS011;49573;47.682;9.170;2022-12-29T12:43:54;3.58;;;2.00;;
63444;SDS011;49573;47.682;9.170;2022-12-29T12:46:58;5.65;;;2.55;;
63444;SDS011;49573;47.682;9.170;2022-12-29T12:50:19;5.47;;;2.10;;
63444;SDS011;49573;47.682;9.170;2022-12-29T12:53:39;3.70;;;2.58;;
63444;SDS011;49573;47.682;9.170;2022-12-29T12:56:37;4.40;;;2.22;;
63444;SDS011;49573;47.682;9.170;2022-12-29T12:59:32;6.70;;;3.25;;
63444;SDS011;49573;47.682;9.170;2022-12-29T13:02:29;6.47;;;2.35;;
63444;SDS011;49573;47.682;9.170;2022-12-29T13:08:28;4.05;;;2.30;;
63444;SDS011;49573;47.682;9.170;2022-12-29T13:11:28;4.13;;;2.40;;
63444;SDS011;49573;47.682;9.170;2022-12-29T13:14:27;3.67;;;1.85;;
63444;SDS011;49573;47.682;9.170;2022-12-29T13:17:25;4.03;;;2.33;;
63444;SDS011;49573;47.682;9.170;2022-12-29T13:20:18;3.95;;;2.30;;
63444;SDS011;49573;47.682;9.170;2022-12-29T13:23:11;4.70;;;2.92;;
63444;SDS011;49573;47.682;9.170;2022-12-29T13:26:08;4.00;;;2.25;;
63444;SDS011;49573;47.682;9.170;2022-12-29T13:29:03;2.88;;;1.90;;
63444;SDS011;49573;47.682;9.170;2022-12-29T13:32:02;2.33;;;1.70;;
63444;SDS011;49573;47.682;9.170;2022-12-29T13:35:04;3.55;;;1.90;;
63444;SDS011;49573;47.682;9.170;2022-12-29T13:38:04;4.00;;;2.10;;
63444;SDS011;49573;47.682;9.170;2022-12-29T13:40:58;3.35;;;1.77;;
63444;SDS011;49573;47.682;9.170;2022-12-29T13:43:45;2.75;;;1.60;;
63444;SDS011;49573;47.682;9.170;2022-12-29T13:46:37;3.90;;;1.63;;
63444;SDS011;49573;47.682;9.170;2022-12-29T13:49:27;3.70;;;2.03;;
63444;SDS011;49573;47.682;9.170;2022-12-29T13:52:15;2.65;;;1.60;;
63444;SDS011;49573;47.682;9.170;2022-12-29T13:55:17;6.22;;;1.98;;
63444;SDS011;49573;47.682;9.170;2022-12-29T13:58:09;4.20;;;1.65;;
63444;SDS011;49573;47.682;9.170;2022-12-29T14:01:00;3.63;;;1.80;;
63444;SDS011;49573;47.682;9.170;2022-12-29T14:03:53;7.45;;;2.95;;
63444;SDS011;49573;47.682;9.170;2022-12-29T14:06:42;19.52;;;7.30;;
63444;SDS011;49573;47.682;9.170;2022-12-29T14:09:38;44.40;;;16.17;;
63444;SDS011;49573;47.682;9.170;2022-12-29T14:12:30;13.48;;;5.88;;
63444;SDS011;49573;47.682;9.170;2022-12-29T14:15:20;8.10;;;3.63;;
63444;SDS011;49573;47.682;9.170;2022-12-29T14:18:11;7.97;;;3.97;;
63444;SDS011;49573;47.682;9.170;2022-12-29T14:21:00;3.15;;;2.08;;
63444;SDS011;49573;47.682;9.170;2022-12-29T14:23:54;3.75;;;2.03;;
63444;SDS011;49573;47.682;9.170;2022-12-29T14:27:01;5.00;;;2.58;;
63444;SDS011;49573;47.682;9.170;2022-12-29T14:33:36;4.40;;;2.13;;
63444;SDS011;49573;47.682;9.170;2022-12-29T14:36:24;3.60;;;2.00;;
63444;SDS011;49573;47.682;9.170;2022-12-29T14:39:27;3.53;;;1.55;;
63444;SDS011;49573;47.682;9.170;2022-12-29T14:42:19;4.07;;;1.83;;
63444;SDS011;49573;47.682;9.170;2022-12-29T14:45:22;5.45;;;1.75;;
63444;SDS011;49573;47.682;9.170;2022-12-29T14:48:25;4.15;;;2.50;;
63444;SDS011;49573;47.682;9.170;2022-12-29T14:51:30;4.57;;;2.10;;
63444;SDS011;49573;47.682;9.170;2022-12-29T14:57:35;1.88;;;1.58;;
63444;SDS011;49573;47.682;9.170;2022-12-29T15:00:24;4.10;;;2.08;;
63444;SDS011;49573;47.682;9.170;2022-12-29T15:03:17;3.58;;;2.03;;
63444;SDS011;49573;47.682;9.170;2022-12-29T15:06:07;3.40;;;2.10;;
63444;SDS011;49573;47.682;9.170;2022-12-29T15:08:59;3.90;;;1.80;;
63444;SDS011;49573;47.682;9.170;2022-12-29T15:11:51;5.68;;;2.10;;
63444;SDS011;49573;47.682;9.170;2022-12-29T15:14:47;6.13;;;2.22;;
63444;SDS011;49573;47.682;9.170;2022-12-29T15:17:35;4.47;;;2.10;;
63444;SDS011;49573;47.682;9.170;2022-12-29T15:20:25;4.22;;;2.47;;
63444;SDS011;49573;47.682;9.170;2022-12-29T15:23:14;3.33;;;2.10;;
63444;SDS011;49573;47.682;9.170;2022-12-29T15:26:03;4.00;;;2.00;;
63444;SDS011;49573;47.682;9.170;2022-12-29T15:28:51;3.70;;;1.92;;
63444;SDS011;49573;47.682;9.170;2022-12-29T15:31:45;2.63;;;1.63;;
63444;SDS011;49573;47.682;9.170;2022-12-29T15:34:34;4.13;;;1.67;;
63444;SDS011;49573;47.682;9.170;2022-12-29T15:37:21;4.88;;;1.73;;
63444;SDS011;49573;47.682;9.170;2022-12-29T15:40:20;3.03;;;1.80;;
63444;SDS011;49573;47.682;9.170;2022-12-29T15:43:12;3.55;;;1.90;;
63444;SDS011;49573;47.682;9.170;2022-12-29T15:46:09;5.45;;;2.30;;
63444;SDS011;49573;47.682;9.170;2022-12-29T15:48:57;3.58;;;2.13;;
63444;SDS011;49573;47.682;9.170;2022-12-29T15:51:43;6.45;;;2.50;;
63444;SDS011;49573;47.682;9.170;2022-12-29T15:54:30;5.65;;;2.30;;
63444;SDS011;49573;47.682;9.170;2022-12-29T15:57:21;5.47;;;2.65;;
63444;SDS011;49573;47.682;9.170;2022-12-29T16:00:20;4.53;;;2.55;;
63444;SDS011;49573;47.682;9.170;2022-12-29T16:03:11;4.68;;;1.92;;
63444;SDS011;49573;47.682;9.170;2022-12-29T16:06:06;3.50;;;1.90;;
63444;SDS011;49573;47.682;9.170;2022-12-29T16:08:56;3.40;;;1.90;;
63444;SDS011;49573;47.682;9.170;2022-12-29T16:11:45;5.35;;;2.40;;
63444;SDS011;49573;47.682;9.170;2022-12-29T16:14:37;3.15;;;1.95;;
63444;SDS011;49573;47.682;9.170;2022-12-29T16:17:27;5.10;;;2.03;;
63444;SDS011;49573;47.682;9.170;2022-12-29T16:20:17;3.50;;;2.20;;
63444;SDS011;49573;47.682;9.170;2022-12-29T16:23:05;7.60;;;2.28;;
63444;SDS011;49573;47.682;9.170;2022-12-29T16:26:02;3.40;;;1.97;;
63444;SDS011;49573;47.682;9.170;2022-12-29T16:28:54;3.58;;;2.22;;
63444;SDS011;49573;47.682;9.170;2022-12-29T16:31:50;3.20;;;1.83;;
63444;SDS011;49573;47.682;9.170;2022-12-29T16:34:42;3.53;;;1.95;;
63444;SDS011;49573;47.682;9.170;2022-12-29T16:37:31;5.30;;;1.98;;
63444;SDS011;49573;47.682;9.170;2022-12-29T16:40:23;4.45;;;2.40;;
63444;SDS011;49573;47.682;9.170;2022-12-29T16:43:18;5.30;;;2.50;;
63444;SDS011;49573;47.682;9.170;2022-12-29T16:46:16;3.90;;;2.40;;
63444;SDS011;49573;47.682;9.170;2022-12-29T16:49:07;3.35;;;2.20;;
63444;SDS011;49573;47.682;9.170;2022-12-29T16:52:09;4.50;;;1.80;;
63444;SDS011;49573;47.682;9.170;2022-12-29T16:54:58;3.67;;;2.00;;
63444;SDS011;49573;47.682;9.170;2022-12-29T16:57:46;5.80;;;3.20;;
63444;SDS011;49573;47.682;9.170;2022-12-29T17:00:35;3.58;;;2.00;;
63444;SDS011;49573;47.682;9.170;2022-12-29T17:06:10;3.50;;;2.05;;
63444;SDS011;49573;47.682;9.170;2022-12-29T17:09:00;5.07;;;2.28;;
63444;SDS011;49573;47.682;9.170;2022-12-29T17:11:47;5.18;;;2.88;;
63444;SDS011;49573;47.682;9.170;2022-12-29T17:14:42;5.53;;;3.10;;
63444;SDS011;49573;47.682;9.170;2022-12-29T17:17:30;8.57;;;3.13;;
63444;SDS011;49573;47.682;9.170;2022-12-29T17:20:19;3.78;;;2.35;;
63444;SDS011;49573;47.682;9.170;2022-12-29T17:23:12;4.80;;;2.35;;
63444;SDS011;49573;47.682;9.170;2022-12-29T17:26:00;4.78;;;2.90;;